createdAt,value
2017-12-06T00:00:03.231Z,12.55
2017-12-06T00:02:29.521Z,10.65
2017-12-06T00:04:56.709Z,10.57
2017-12-06T00:07:22.971Z,11.18
2017-12-06T00:09:49.975Z,10.75
2017-12-06T00:12:22.231Z,9.82
2017-12-06T00:14:54.581Z,11.07
2017-12-06T00:17:20.841Z,10.60
2017-12-06T00:19:47.111Z,11.98
2017-12-06T00:22:14.163Z,10.70
2017-12-06T00:24:41.215Z,10.73
2017-12-06T00:27:07.500Z,11.23
2017-12-06T00:29:33.770Z,10.15
2017-12-06T00:32:00.020Z,10.07
2017-12-06T00:34:26.299Z,9.55
2017-12-06T00:36:53.313Z,9.27
2017-12-06T00:39:20.751Z,10.25
2017-12-06T00:41:46.990Z,10.25
2017-12-06T00:44:13.270Z,11.00
2017-12-06T00:46:40.306Z,11.10
2017-12-06T00:49:07.301Z,10.75
2017-12-06T00:51:33.504Z,10.52
2017-12-06T00:53:59.763Z,10.88
2017-12-06T00:56:26.046Z,10.02
2017-12-06T00:58:52.316Z,11.65
2017-12-06T01:01:18.597Z,8.98
2017-12-06T01:03:45.589Z,9.88
2017-12-06T01:06:11.859Z,9.90
2017-12-06T01:08:38.994Z,9.35
2017-12-06T01:11:05.256Z,10.48
2017-12-06T01:13:31.508Z,10.10
2017-12-06T01:15:58.096Z,10.95
2017-12-06T01:18:25.103Z,9.38
2017-12-06T01:20:51.394Z,9.52
2017-12-06T01:23:20.051Z,10.70
2017-12-06T01:25:47.058Z,10.60
2017-12-06T01:28:13.327Z,9.13
2017-12-06T01:30:40.585Z,9.70
2017-12-06T01:33:06.852Z,9.52
2017-12-06T01:35:33.121Z,12.15
2017-12-06T01:38:00.138Z,8.77
2017-12-06T01:40:26.458Z,9.38
2017-12-06T01:42:52.736Z,9.68
2017-12-06T01:45:19.744Z,9.35
2017-12-06T01:47:45.984Z,9.18
2017-12-06T01:50:12.308Z,11.00
2017-12-06T01:52:38.609Z,9.63
2017-12-06T01:55:04.885Z,9.27
2017-12-06T01:57:31.950Z,11.00
2017-12-06T01:59:58.207Z,9.60
2017-12-06T02:02:24.494Z,9.75
2017-12-06T02:04:51.509Z,10.40
2017-12-06T02:07:17.769Z,9.27
2017-12-06T02:09:44.801Z,9.45
2017-12-06T02:12:11.831Z,8.93
2017-12-06T02:14:38.123Z,9.38
2017-12-06T02:17:04.417Z,9.30
2017-12-06T02:19:31.438Z,9.07
2017-12-06T02:21:58.104Z,9.25
2017-12-06T02:24:24.378Z,9.80
2017-12-06T02:26:50.693Z,11.23
2017-12-06T02:29:17.070Z,10.57
2017-12-06T02:31:44.071Z,9.45
2017-12-06T02:34:10.331Z,10.40
2017-12-06T02:36:36.638Z,10.63
2017-12-06T02:39:02.993Z,10.25
2017-12-06T02:41:42.350Z,10.68
2017-12-06T02:44:20.853Z,9.95
2017-12-06T02:46:47.867Z,8.75
2017-12-06T02:49:14.141Z,10.43
2017-12-06T02:51:40.450Z,11.27
2017-12-06T02:54:07.483Z,9.73
2017-12-06T02:56:33.767Z,9.85
2017-12-06T02:59:00.015Z,10.00
2017-12-06T03:01:26.316Z,10.73
2017-12-06T03:03:52.579Z,10.80
2017-12-06T03:06:18.892Z,11.63
2017-12-06T03:08:45.150Z,10.45
2017-12-06T03:11:11.421Z,11.40
2017-12-06T03:13:37.670Z,10.07
2017-12-06T03:16:03.918Z,10.23
2017-12-06T03:18:30.147Z,10.57
2017-12-06T03:20:56.390Z,9.73
2017-12-06T03:23:22.662Z,10.18
2017-12-06T03:25:48.987Z,12.50
2017-12-06T03:28:15.250Z,9.73
2017-12-06T03:30:42.707Z,14.48
2017-12-06T03:33:10.172Z,11.20
2017-12-06T03:35:37.319Z,11.02
2017-12-06T03:38:05.822Z,10.13
2017-12-06T03:40:32.995Z,10.48
2017-12-06T03:43:00.222Z,10.38
2017-12-06T03:45:26.529Z,10.65
2017-12-06T03:47:52.792Z,9.73
2017-12-06T03:50:19.059Z,10.70
2017-12-06T03:52:45.337Z,9.65
2017-12-06T03:55:12.347Z,10.40
2017-12-06T03:57:38.613Z,11.40
2017-12-06T04:00:05.608Z,10.30
2017-12-06T04:02:31.853Z,10.68
2017-12-06T04:04:58.156Z,8.75
2017-12-06T04:07:24.415Z,10.48
2017-12-06T04:09:50.657Z,9.15
2017-12-06T04:12:17.680Z,10.25
2017-12-06T04:14:43.929Z,9.75
2017-12-06T04:17:10.964Z,11.05
2017-12-06T04:19:37.226Z,10.80
2017-12-06T04:22:03.505Z,9.57
2017-12-06T04:24:29.767Z,10.13
2017-12-06T04:26:56.071Z,10.73
2017-12-06T04:29:22.315Z,12.45
2017-12-06T04:31:49.299Z,15.75
2017-12-06T04:34:15.553Z,11.63
2017-12-06T04:36:41.828Z,10.43
2017-12-06T04:39:08.446Z,8.73
2017-12-06T04:41:35.477Z,8.57
2017-12-06T04:44:01.780Z,9.30
2017-12-06T04:46:28.088Z,9.85
2017-12-06T04:48:54.359Z,8.77
2017-12-06T04:51:20.665Z,8.80
2017-12-06T04:53:49.890Z,8.13
2017-12-06T04:56:16.692Z,9.10
2017-12-06T04:58:42.954Z,8.15
2017-12-06T05:01:09.388Z,9.48
2017-12-06T05:03:35.813Z,9.10
2017-12-06T05:06:02.102Z,9.30
2017-12-06T05:08:28.354Z,8.80
2017-12-06T05:10:55.610Z,9.40
2017-12-06T05:13:21.925Z,9.73
2017-12-06T05:15:48.161Z,8.50
2017-12-06T05:18:14.425Z,10.02
2017-12-06T05:20:41.396Z,9.93
2017-12-06T05:23:08.454Z,9.40
2017-12-06T05:25:34.754Z,9.70
2017-12-06T05:28:00.993Z,9.95
2017-12-06T05:30:27.291Z,9.75
2017-12-06T05:32:53.552Z,8.32
2017-12-06T05:35:19.807Z,9.48
2017-12-06T05:37:46.078Z,10.10
2017-12-06T05:40:13.125Z,9.07
2017-12-06T05:42:40.147Z,9.52
2017-12-06T05:45:06.402Z,10.05
2017-12-06T05:47:33.409Z,9.45
2017-12-06T05:49:59.660Z,11.32
2017-12-06T05:52:26.664Z,10.05
2017-12-06T05:54:52.932Z,9.55
2017-12-06T05:57:19.939Z,9.70
2017-12-06T05:59:46.164Z,10.63
2017-12-06T06:02:12.457Z,9.75
2017-12-06T06:04:38.679Z,10.38
2017-12-06T06:07:04.924Z,10.93
2017-12-06T06:09:31.210Z,9.60
2017-12-06T06:11:57.489Z,9.23
2017-12-06T06:14:24.140Z,10.13
2017-12-06T06:16:50.705Z,12.13
2017-12-06T06:19:16.947Z,10.38
2017-12-06T06:21:43.953Z,10.40
2017-12-06T06:24:10.200Z,10.93
2017-12-06T06:26:36.515Z,10.38
2017-12-06T06:29:02.805Z,11.23
2017-12-06T06:31:29.053Z,10.65
2017-12-06T06:33:56.071Z,11.15
2017-12-06T06:36:22.337Z,11.10
2017-12-06T06:38:48.597Z,11.43
2017-12-06T06:41:15.641Z,10.05
2017-12-06T06:43:42.664Z,10.85
2017-12-06T06:46:08.932Z,11.25
2017-12-06T06:48:35.940Z,11.00
2017-12-06T06:51:02.203Z,10.35
2017-12-06T06:53:29.213Z,11.18
2017-12-06T06:55:55.517Z,13.30
2017-12-06T06:58:21.780Z,10.45
2017-12-06T07:00:48.775Z,11.18
2017-12-06T07:03:15.029Z,12.00
2017-12-06T07:05:41.296Z,10.48
2017-12-06T07:08:08.299Z,12.20
2017-12-06T07:10:34.552Z,10.32
2017-12-06T07:13:00.819Z,11.90
2017-12-06T07:15:27.087Z,13.07
2017-12-06T07:17:53.349Z,12.32
2017-12-06T07:20:20.366Z,13.98
2017-12-06T07:22:46.609Z,11.85
2017-12-06T07:25:12.922Z,12.05
2017-12-06T07:27:39.217Z,11.45
2017-12-06T07:30:05.519Z,10.75
2017-12-06T07:32:31.782Z,13.00
2017-12-06T07:34:58.104Z,11.20
2017-12-06T07:37:24.439Z,9.38
2017-12-06T07:39:50.799Z,10.13
2017-12-06T07:42:17.107Z,10.52
2017-12-06T07:44:43.416Z,9.88
2017-12-06T07:47:09.662Z,11.25
2017-12-06T07:49:36.197Z,10.88
2017-12-06T07:52:02.438Z,10.65
2017-12-06T07:54:28.701Z,10.10
2017-12-06T07:56:55.719Z,9.68
2017-12-06T07:59:21.990Z,8.95
2017-12-06T08:01:48.970Z,8.93
2017-12-06T08:04:15.269Z,8.57
2017-12-06T08:06:41.546Z,10.15
2017-12-06T08:09:07.838Z,9.60
2017-12-06T08:11:34.089Z,9.23
2017-12-06T08:14:00.345Z,9.00
2017-12-06T08:16:27.713Z,8.90
2017-12-06T08:18:54.167Z,10.05
2017-12-06T08:21:20.465Z,8.65
2017-12-06T08:23:47.592Z,10.70
2017-12-06T08:26:14.240Z,8.15
2017-12-06T08:28:40.541Z,10.00
2017-12-06T08:31:06.821Z,10.68
2017-12-06T08:33:33.114Z,10.55
2017-12-06T08:35:59.408Z,9.15
2017-12-06T08:38:25.772Z,9.43
2017-12-06T08:40:52.027Z,10.88
2017-12-06T08:43:18.331Z,11.23
2017-12-06T08:45:44.630Z,10.68
2017-12-06T08:48:10.886Z,10.75
2017-12-06T08:50:37.979Z,10.77
2017-12-06T08:53:04.246Z,9.43
2017-12-06T08:55:30.458Z,10.85
2017-12-06T08:57:56.760Z,10.00
2017-12-06T09:00:23.068Z,10.18
2017-12-06T09:02:49.345Z,10.32
2017-12-06T09:05:15.643Z,10.93
2017-12-06T09:07:41.849Z,8.93
2017-12-06T09:10:08.153Z,10.23
2017-12-06T09:12:35.495Z,9.48
2017-12-06T09:15:01.774Z,9.25
2017-12-06T09:17:28.064Z,9.02
2017-12-06T09:19:54.337Z,10.25
2017-12-06T09:22:20.637Z,8.40
2017-12-06T09:24:47.669Z,9.48
2017-12-06T09:27:14.690Z,11.68
2017-12-06T09:29:40.965Z,10.38
2017-12-06T09:32:07.246Z,9.35
2017-12-06T09:34:33.562Z,9.32
2017-12-06T09:37:00.643Z,10.90
2017-12-06T09:39:27.774Z,9.10
2017-12-06T09:41:54.064Z,9.80
2017-12-06T09:44:20.368Z,10.25
2017-12-06T09:46:46.622Z,10.18
2017-12-06T09:49:12.841Z,10.18
2017-12-06T09:51:39.160Z,11.70
2017-12-06T09:54:05.478Z,10.48
2017-12-06T09:56:31.741Z,11.73
2017-12-06T09:58:58.027Z,10.88
2017-12-06T10:01:25.049Z,8.93
2017-12-06T10:03:51.340Z,12.55
2017-12-06T10:06:17.569Z,11.43
2017-12-06T10:08:43.828Z,11.73
2017-12-06T10:11:10.140Z,9.95
2017-12-06T10:13:36.404Z,9.88
2017-12-06T10:16:03.433Z,9.35
2017-12-06T10:18:29.724Z,10.10
2017-12-06T10:20:55.996Z,10.90
2017-12-06T10:23:23.076Z,9.82
2017-12-06T10:25:49.354Z,8.80
2017-12-06T10:28:15.690Z,8.82
2017-12-06T10:30:42.766Z,12.10
2017-12-06T10:33:09.062Z,10.38
2017-12-06T10:35:35.378Z,8.40
2017-12-06T10:38:02.064Z,9.85
2017-12-06T10:40:28.407Z,10.35
2017-12-06T10:42:54.705Z,10.80
2017-12-06T10:45:21.705Z,11.63
2017-12-06T10:47:47.966Z,9.65
2017-12-06T10:50:14.303Z,11.23
2017-12-06T10:52:41.317Z,9.40
2017-12-06T10:55:07.567Z,9.80
2017-12-06T10:57:33.835Z,10.77
2017-12-06T11:00:00.094Z,9.40
2017-12-06T11:02:26.367Z,10.10
2017-12-06T11:04:53.369Z,10.10
2017-12-06T11:07:19.595Z,9.27
2017-12-06T11:09:45.857Z,10.20
2017-12-06T11:12:12.862Z,9.52
2017-12-06T11:14:39.142Z,9.77
2017-12-06T11:17:06.161Z,10.00
2017-12-06T11:19:32.419Z,10.43
2017-12-06T11:21:58.653Z,10.88
2017-12-06T11:24:25.294Z,10.75
2017-12-06T11:26:51.577Z,10.50
2017-12-06T11:29:17.848Z,10.75
2017-12-06T11:31:44.136Z,10.82
2017-12-06T11:34:10.409Z,11.27
2017-12-06T11:36:36.616Z,12.27
2017-12-06T11:39:03.132Z,11.82
2017-12-06T11:41:30.100Z,13.27
2017-12-06T11:43:56.386Z,11.25
2017-12-06T11:46:22.642Z,11.20
2017-12-06T11:48:48.902Z,12.02
2017-12-06T11:51:15.198Z,11.70
2017-12-06T11:53:42.199Z,11.45
2017-12-06T11:56:08.501Z,12.30
2017-12-06T11:58:34.778Z,11.80
2017-12-06T12:01:01.056Z,11.23
2017-12-06T12:03:27.348Z,12.00
2017-12-06T12:05:54.365Z,11.07
2017-12-06T12:08:20.639Z,12.60
2017-12-06T12:10:46.920Z,11.95
2017-12-06T12:13:13.180Z,11.70
2017-12-06T12:15:40.220Z,12.07
2017-12-06T12:18:07.219Z,12.30
2017-12-06T12:20:33.521Z,12.70
2017-12-06T12:22:59.806Z,13.00
2017-12-06T12:25:26.037Z,15.10
2017-12-06T12:27:52.351Z,11.57
2017-12-06T12:30:18.607Z,13.05
2017-12-06T12:32:45.600Z,15.15
2017-12-06T12:35:11.850Z,11.63
2017-12-06T12:37:38.122Z,11.15
2017-12-06T12:40:04.560Z,12.50
2017-12-06T12:42:34.411Z,12.40
2017-12-06T12:45:00.708Z,12.05
2017-12-06T12:47:26.998Z,12.00
2017-12-06T12:49:54.051Z,11.68
2017-12-06T12:52:21.101Z,11.23
2017-12-06T12:54:48.135Z,12.88
2017-12-06T12:57:15.162Z,12.37
2017-12-06T12:59:42.228Z,11.38
2017-12-06T13:02:09.238Z,12.75
2017-12-06T13:04:35.511Z,12.45
2017-12-06T13:07:02.587Z,11.02
2017-12-06T13:09:28.863Z,14.20
2017-12-06T13:11:55.152Z,13.93
2017-12-06T13:14:21.451Z,13.40
2017-12-06T13:16:47.732Z,13.27
2017-12-06T13:19:14.044Z,13.60
2017-12-06T13:21:41.060Z,12.60
2017-12-06T13:24:07.347Z,15.73
2017-12-06T13:26:33.717Z,13.13
2017-12-06T13:29:01.429Z,12.32
2017-12-06T13:31:27.753Z,12.98
2017-12-06T13:33:54.096Z,12.57
2017-12-06T13:36:20.392Z,14.70
2017-12-06T13:38:46.876Z,12.98
2017-12-06T13:41:13.175Z,13.20
2017-12-06T13:43:39.456Z,12.52
2017-12-06T13:46:05.761Z,12.27
2017-12-06T13:48:32.847Z,12.85
2017-12-06T13:50:59.126Z,13.07
2017-12-06T13:53:26.158Z,13.57
2017-12-06T13:55:52.481Z,12.50
2017-12-06T13:58:19.072Z,14.02
2017-12-06T14:00:45.397Z,14.65
2017-12-06T14:03:11.682Z,12.23
2017-12-06T14:05:38.025Z,13.07
2017-12-06T14:08:04.338Z,13.38
2017-12-06T14:10:30.630Z,13.90
2017-12-06T14:12:57.233Z,16.52
2017-12-06T14:15:23.524Z,14.50
2017-12-06T14:17:49.862Z,13.73
2017-12-06T14:20:16.934Z,14.70
2017-12-06T14:22:43.243Z,13.15
2017-12-06T14:25:09.580Z,14.30
2017-12-06T14:27:36.856Z,13.95
2017-12-06T14:30:03.228Z,14.27
2017-12-06T14:32:29.559Z,15.93
2017-12-06T14:34:55.915Z,14.98
2017-12-06T14:37:22.253Z,14.38
2017-12-06T14:39:48.619Z,13.60
2017-12-06T14:42:14.914Z,13.65
2017-12-06T14:44:42.043Z,14.00
2017-12-06T14:47:08.376Z,15.15
2017-12-06T14:49:35.458Z,13.88
2017-12-06T14:52:01.806Z,14.90
2017-12-06T14:54:28.144Z,14.10
2017-12-06T14:56:54.484Z,15.35
2017-12-06T14:59:20.778Z,15.20
2017-12-06T15:01:47.086Z,15.80
2017-12-06T15:04:13.369Z,15.32
2017-12-06T15:06:39.655Z,16.17
2017-12-06T15:09:06.015Z,16.70
2017-12-06T15:11:32.319Z,15.73
2017-12-06T15:13:58.637Z,14.60
2017-12-06T15:16:24.970Z,14.10
2017-12-06T15:18:51.282Z,15.52
2017-12-06T15:21:17.600Z,14.38
2017-12-06T15:23:44.701Z,14.30
2017-12-06T15:26:11.203Z,13.50
2017-12-06T15:28:37.531Z,14.68
2017-12-06T15:31:03.849Z,15.82
2017-12-06T15:33:30.212Z,13.60
2017-12-06T15:35:56.523Z,14.75
2017-12-06T15:38:22.882Z,12.82
2017-12-06T15:40:49.221Z,13.38
2017-12-06T15:43:15.504Z,14.38
2017-12-06T15:45:41.826Z,15.30
2017-12-06T15:48:08.082Z,16.83
2017-12-06T15:50:34.429Z,16.02
2017-12-06T15:53:00.768Z,16.58
2017-12-06T15:55:27.093Z,14.07
2017-12-06T15:57:53.884Z,17.70
2017-12-06T16:00:20.369Z,17.23
2017-12-06T16:02:46.661Z,17.55
2017-12-06T16:05:12.988Z,16.00
2017-12-06T16:07:39.272Z,17.17
2017-12-06T16:10:06.395Z,15.68
2017-12-06T16:12:32.677Z,17.40
2017-12-06T16:14:58.994Z,16.65
2017-12-06T16:17:25.344Z,16.83
2017-12-06T16:19:51.633Z,15.30
2017-12-06T16:22:18.709Z,14.20
2017-12-06T16:24:45.030Z,14.27
2017-12-06T16:27:11.351Z,16.17
2017-12-06T16:29:38.467Z,19.33
2017-12-06T16:32:04.813Z,19.52
2017-12-06T16:34:31.887Z,15.40
2017-12-06T16:37:10.642Z,17.20
2017-12-06T16:39:36.959Z,18.55
2017-12-06T16:42:03.288Z,16.55
2017-12-06T16:44:29.680Z,17.20
2017-12-06T16:46:56.773Z,17.50
2017-12-06T16:49:23.122Z,16.67
2017-12-06T16:51:49.404Z,15.73
2017-12-06T16:54:15.728Z,17.50
2017-12-06T16:56:42.056Z,15.05
2017-12-06T16:59:08.360Z,16.52
2017-12-06T17:01:35.478Z,18.15
2017-12-06T17:04:02.580Z,17.12
2017-12-06T17:06:28.923Z,17.33
2017-12-06T17:08:55.305Z,18.73
2017-12-06T17:11:21.627Z,15.40
2017-12-06T17:13:47.987Z,17.10
2017-12-06T17:16:15.056Z,17.45
2017-12-06T17:18:41.453Z,17.30
2017-12-06T17:21:08.806Z,16.92
2017-12-06T17:23:35.931Z,17.87
2017-12-06T17:26:03.063Z,19.25
2017-12-06T17:31:49.438Z,16.62
2017-12-06T17:34:15.786Z,17.98
2017-12-06T17:36:44.829Z,17.58
2017-12-06T17:39:11.290Z,17.37
2017-12-06T17:41:37.662Z,17.83
2017-12-06T17:44:03.984Z,20.67
2017-12-06T17:46:30.294Z,21.27
2017-12-06T17:48:56.742Z,19.55
2017-12-06T17:51:22.994Z,19.60
2017-12-06T17:53:49.326Z,18.90
2017-12-06T17:56:15.674Z,17.70
2017-12-06T17:58:42.752Z,19.00
2017-12-06T18:01:09.133Z,19.05
2017-12-06T18:03:35.479Z,18.20
2017-12-06T18:06:01.824Z,17.00
2017-12-06T18:08:28.983Z,19.75
2017-12-06T18:10:55.410Z,19.75
2017-12-06T18:13:21.800Z,18.73
2017-12-06T18:15:48.152Z,17.10
2017-12-06T18:18:14.565Z,19.90
2017-12-06T18:20:41.699Z,18.70
2017-12-06T18:23:08.062Z,18.02
2017-12-06T18:25:35.138Z,18.60
2017-12-06T18:28:01.524Z,19.10
2017-12-06T18:30:28.669Z,20.02
2017-12-06T18:32:54.988Z,17.58
2017-12-06T18:35:22.186Z,17.62
2017-12-06T18:37:48.519Z,17.08
2017-12-06T18:40:14.931Z,17.95
2017-12-06T18:42:42.041Z,17.55
2017-12-06T18:45:09.246Z,16.67
2017-12-06T18:47:35.760Z,18.20
2017-12-06T18:50:02.863Z,18.35
2017-12-06T18:52:29.244Z,19.55
2017-12-06T18:54:56.377Z,17.37
2017-12-06T18:57:23.488Z,17.77
2017-12-06T18:59:49.891Z,19.37
2017-12-06T19:02:16.250Z,15.57
2017-12-06T19:04:43.653Z,15.45
2017-12-06T19:07:10.104Z,16.20
2017-12-06T19:09:36.442Z,14.75
2017-12-06T19:12:02.837Z,15.02
2017-12-06T19:14:29.316Z,16.98
2017-12-06T19:16:56.660Z,17.40
2017-12-06T19:19:23.044Z,17.23
2017-12-06T19:21:50.220Z,18.65
2017-12-06T19:24:16.608Z,16.05
2017-12-06T19:26:43.736Z,17.55
2017-12-06T19:29:10.139Z,17.60
2017-12-06T19:31:36.514Z,18.35
2017-12-06T19:34:02.946Z,15.93
2017-12-06T19:36:29.317Z,17.42
2017-12-06T19:38:55.759Z,17.05
2017-12-06T19:41:22.196Z,18.33
2017-12-06T19:43:48.579Z,18.08
2017-12-06T19:46:15.713Z,18.17
2017-12-06T19:48:42.120Z,16.85
2017-12-06T19:51:08.465Z,18.42
2017-12-06T19:53:34.899Z,17.02
2017-12-06T19:56:01.297Z,17.40
2017-12-06T19:58:27.727Z,18.60
2017-12-06T20:00:54.089Z,19.62
2017-12-06T20:03:20.479Z,17.65
2017-12-06T20:05:46.841Z,21.92
2017-12-06T20:08:13.194Z,18.05
2017-12-06T20:10:39.607Z,19.95
2017-12-06T20:13:06.013Z,19.80
2017-12-06T20:15:32.416Z,17.00
2017-12-06T20:17:58.841Z,17.62
2017-12-06T20:20:25.259Z,17.30
2017-12-06T20:22:52.415Z,19.12
2017-12-06T20:25:20.771Z,19.35
2017-12-06T20:27:48.054Z,16.48
2017-12-06T20:30:15.200Z,19.75
2017-12-06T20:32:41.596Z,17.62
2017-12-06T20:35:08.858Z,18.33
2017-12-06T20:37:36.229Z,19.60
2017-12-06T20:40:06.115Z,19.60
2017-12-06T20:42:33.484Z,19.00
2017-12-06T20:45:02.428Z,20.73
2017-12-06T20:47:28.800Z,18.73
2017-12-06T20:49:55.948Z,19.65
2017-12-06T20:52:22.340Z,19.00
2017-12-06T20:54:48.763Z,22.23
2017-12-06T20:57:15.154Z,20.65
2017-12-06T20:59:42.231Z,21.10
2017-12-06T21:02:08.592Z,24.35
2017-12-06T21:04:34.985Z,21.45
2017-12-06T21:07:01.311Z,21.37
2017-12-06T21:09:27.709Z,21.48
2017-12-06T21:11:54.899Z,21.20
2017-12-06T21:14:21.283Z,23.30
2017-12-06T21:16:48.379Z,21.42
2017-12-06T21:19:14.769Z,21.98
2017-12-06T21:21:41.873Z,18.90
2017-12-06T21:24:08.199Z,19.33
2017-12-06T21:26:34.530Z,20.02
2017-12-06T21:29:00.854Z,18.52
2017-12-06T21:31:27.196Z,18.55
2017-12-06T21:33:53.523Z,18.80
2017-12-06T21:36:19.888Z,19.50
2017-12-06T21:38:46.971Z,19.15
2017-12-06T21:41:13.281Z,19.37
2017-12-06T21:43:40.346Z,19.00
2017-12-06T21:46:06.740Z,18.90
2017-12-06T21:48:33.756Z,19.25
2017-12-06T21:51:00.058Z,20.20
2017-12-06T21:53:26.356Z,18.70
2017-12-06T21:55:52.711Z,19.55
2017-12-06T21:58:19.011Z,20.67
2017-12-06T22:00:46.057Z,19.92
2017-12-06T22:03:12.370Z,21.15
2017-12-06T22:05:39.421Z,19.70
2017-12-06T22:08:06.446Z,20.50
2017-12-06T22:10:32.700Z,20.58
2017-12-06T22:12:59.746Z,21.23
2017-12-06T22:15:26.747Z,21.50
2017-12-06T22:17:53.024Z,20.35
2017-12-06T22:20:20.030Z,21.00
2017-12-06T22:22:46.287Z,20.92
2017-12-06T22:25:13.279Z,20.90
2017-12-06T22:27:39.573Z,18.67
2017-12-06T22:30:05.866Z,19.87
2017-12-06T22:32:32.136Z,20.50
2017-12-06T22:34:58.413Z,22.33
2017-12-06T22:37:24.652Z,21.70
2017-12-06T22:39:51.064Z,20.62
2017-12-06T22:42:17.344Z,21.40
2017-12-06T22:44:55.826Z,20.08
2017-12-06T22:47:22.144Z,20.85
2017-12-06T22:49:48.400Z,18.77
2017-12-06T22:52:15.408Z,20.83
2017-12-06T22:54:41.666Z,20.40
2017-12-06T22:57:08.703Z,20.70
2017-12-06T22:59:34.952Z,20.40
2017-12-06T23:02:01.939Z,20.95
2017-12-06T23:04:28.239Z,20.27
2017-12-06T23:06:54.530Z,20.60
2017-12-06T23:09:20.821Z,21.33
2017-12-06T23:11:47.101Z,19.42
2017-12-06T23:14:14.104Z,20.60
2017-12-06T23:16:40.402Z,20.95
2017-12-06T23:19:06.660Z,20.60
2017-12-06T23:21:32.913Z,20.12
2017-12-06T23:23:59.181Z,21.35
2017-12-06T23:26:25.473Z,19.60
2017-12-06T23:28:51.769Z,22.85
2017-12-06T23:31:18.095Z,20.83
2017-12-06T23:33:44.376Z,21.42
2017-12-06T23:36:11.400Z,22.05
2017-12-06T23:38:37.756Z,24.92
2017-12-06T23:41:04.054Z,23.70
2017-12-06T23:43:30.324Z,23.52
2017-12-06T23:45:56.563Z,21.10
2017-12-06T23:48:22.826Z,21.30
2017-12-06T23:50:49.104Z,19.50
2017-12-06T23:53:15.348Z,20.42
2017-12-06T23:55:41.878Z,18.92
2017-12-06T23:58:08.124Z,19.35
